Time;durP1;ratioP1;P1;durP2;ratioP2;P2;SDS_P1;SDS_P2;PMS_P1;PMS_P2;Temp;Humidity;BMP_temperature;BMP_pressure;BME280_temperature;BME280_humidity;BME280_pressure;Samples;Min_cycle;Max_cycle;Signal;HPM_P1;HPM_P2
2022/04/23 00:00:09;;;;;;;23.47;20.53;;;;;;;9.23;100.00;95043.66;5071871;27;105006;-64
2022/04/23 00:02:42;;;;;;;26.27;21.77;;;;;;;9.24;100.00;95041.75;5074946;27;105374;-65
2022/04/23 00:05:10;;;;;;;23.67;20.50;;;;;;;9.27;100.00;95043.88;5090320;27;102358;-64
2022/04/23 00:07:37;;;;;;;23.77;20.37;;;;;;;9.21;100.00;95044.97;5071052;27;104030;-65
2022/04/23 00:10:04;;;;;;;25.13;21.33;;;;;;;9.09;100.00;95041.84;5071737;27;101961;-65
2022/04/23 00:12:31;;;;;;;25.73;21.57;;;;;;;9.14;100.00;95045.28;5072055;27;105188;-65
2022/04/23 00:14:59;;;;;;;23.83;20.90;;;;;;;9.17;100.00;95043.94;5088054;27;102830;-65
2022/04/23 00:17:28;;;;;;;26.73;21.87;;;;;;;9.22;100.00;95041.25;5071696;27;102055;-65
2022/04/23 00:19:56;;;;;;;26.77;22.17;;;;;;;9.18;100.00;95046.31;5070710;27;105512;-65
2022/04/23 00:22:24;;;;;;;26.70;22.17;;;;;;;9.14;100.00;95039.16;5071302;27;103020;-65
2022/04/23 00:24:51;;;;;;;24.63;21.27;;;;;;;9.04;100.00;95036.56;5074873;27;102222;-64
2022/04/23 00:27:19;;;;;;;24.40;21.17;;;;;;;9.15;100.00;95046.06;5070894;27;105000;-65
2022/04/23 00:29:45;;;;;;;24.50;20.80;;;;;;;9.11;100.00;95039.72;5071661;27;101867;-65
2022/04/23 00:32:12;;;;;;;24.60;20.63;;;;;;;9.12;100.00;95038.66;5090023;27;103045;-65
2022/04/23 00:34:40;;;;;;;25.57;21.10;;;;;;;9.05;100.00;95040.81;5087998;27;105161;-65
2022/04/23 00:37:07;;;;;;;26.67;21.20;;;;;;;8.99;100.00;95044.56;5071494;27;102000;-65
2022/04/23 00:39:34;;;;;;;23.90;20.53;;;;;;;9.04;100.00;95037.38;5090033;27;102308;-65
2022/04/23 00:42:08;;;;;;;26.37;21.07;;;;;;;9.10;100.00;95038.94;5087979;27;105279;-64
2022/04/23 00:44:35;;;;;;;26.27;21.27;;;;;;;9.12;100.00;95038.66;5071414;27;102094;-65
2022/04/23 00:47:04;;;;;;;27.63;21.43;;;;;;;9.09;100.00;95037.34;5092999;27;102767;-64
2022/04/23 00:49:32;;;;;;;26.30;21.03;;;;;;;9.11;100.00;95039.72;5089886;27;101852;-65
2022/04/23 00:52:00;;;;;;;24.87;21.30;;;;;;;9.19;100.00;95039.13;5071261;27;105733;-65
2022/04/23 00:54:27;;;;;;;26.03;21.33;;;;;;;9.13;100.00;95037.59;5070877;27;104354;-65
2022/04/23 00:56:54;;;;;;;25.97;21.23;;;;;;;9.13;100.00;95025.13;5089835;27;102459;-65
2022/04/23 00:59:21;;;;;;;25.87;20.93;;;;;;;9.00;100.00;95027.59;5089581;27;102401;-64
2022/04/23 01:01:49;;;;;;;23.80;20.53;;;;;;;9.07;100.00;95026.22;5089275;27;102565;-65
2022/04/23 01:04:16;;;;;;;25.77;21.10;;;;;;;9.07;100.00;95030.72;5089722;27;101738;-64
2022/04/23 01:06:45;;;;;;;25.57;20.73;;;;;;;9.11;100.00;95023.81;5089810;27;102498;-65
2022/04/23 01:09:13;;;;;;;26.77;20.90;;;;;;;9.10;100.00;95028.31;5073869;27;102187;-64
2022/04/23 01:11:40;;;;;;;25.10;20.80;;;;;;;8.97;100.00;95025.47;5089626;27;102393;-64
2022/04/23 01:14:07;;;;;;;27.50;21.67;;;;;;;9.02;100.00;95028.09;5070297;27;105530;-64
2022/04/23 01:16:34;;;;;;;26.60;21.60;;;;;;;8.99;100.00;95031.31;5089751;27;102199;-65
2022/04/23 01:19:02;;;;;;;25.63;20.93;;;;;;;8.94;100.00;95028.69;5087501;27;104998;-65
2022/04/23 01:21:30;;;;;;;25.53;20.67;;;;;;;8.89;100.00;95024.19;5070138;27;105400;-65
2022/04/23 01:23:58;;;;;;;26.63;21.97;;;;;;;8.86;100.00;95022.09;5070962;27;101845;-64
2022/04/23 01:26:27;;;;;;;25.00;20.53;;;;;;;8.95;100.00;95022.31;5070759;27;105148;-64
2022/04/23 01:28:55;;;;;;;25.60;21.40;;;;;;;8.82;100.00;95025.53;5077212;27;105706;-65
2022/04/23 01:31:23;;;;;;;27.30;20.60;;;;;;;8.89;100.00;95026.84;5074324;27;105256;-64
2022/04/23 01:33:50;;;;;;;25.23;20.57;;;;;;;8.89;100.00;95016.22;5092624;27;102982;-64
2022/04/23 01:36:17;;;;;;;25.00;21.10;;;;;;;8.79;100.00;95020.78;5093000;27;102006;-65
2022/04/23 01:38:46;;;;;;;25.73;21.67;;;;;;;8.80;100.00;95027.69;5074206;27;103549;-64
2022/04/23 01:41:14;;;;;;;26.10;20.60;;;;;;;8.75;100.00;95030.34;5073669;27;105286;-65
2022/04/23 01:43:40;;;;;;;27.20;21.63;;;;;;;8.72;100.00;95033.56;5074060;27;102058;-65
2022/04/23 01:46:09;;;;;;;27.77;21.27;;;;;;;8.84;100.00;95034.03;5073860;27;104907;-64
2022/04/23 01:48:36;;;;;;;23.17;20.03;;;;;;;8.76;100.00;95037.22;5073730;27;103765;-65
2022/04/23 01:51:03;;;;;;;25.37;20.87;;;;;;;8.71;100.00;95042.53;5077486;27;101931;-65
2022/04/23 01:53:30;;;;;;;26.33;21.20;;;;;;;8.67;100.00;95044.94;5073411;27;105229;-65
2022/04/23 01:55:58;;;;;;;27.13;21.90;;;;;;;8.67;100.00;95050.25;5073817;27;101895;-65
2022/04/23 01:58:25;;;;;;;27.10;21.90;;;;;;;8.69;100.00;95048.13;5073761;27;103627;-65
2022/04/23 02:00:52;;;;;;;27.40;21.87;;;;;;;8.77;100.00;95049.44;5073387;27;105313;-64
2022/04/23 02:03:20;;;;;;;29.87;22.17;;;;;;;8.67;100.00;95049.47;5073962;27;101817;-64
2022/04/23 02:05:47;;;;;;;26.73;21.13;;;;;;;8.64;100.00;95050.00;5092349;27;102554;-65
2022/04/23 02:08:18;;;;;;;30.17;22.90;;;;;;;8.77;100.00;95054.75;5091352;27;102555;-65
2022/04/23 02:10:45;;;;;;;30.87;22.13;;;;;;;8.73;100.00;95045.75;5092484;27;102149;-65
2022/04/23 02:13:14;;;;;;;28.60;21.63;;;;;;;8.72;100.00;95052.09;5095596;27;102948;-64
2022/04/23 02:15:41;;;;;;;29.00;22.03;;;;;;;8.75;100.00;95051.56;5092126;27;101810;-65
2022/04/23 02:18:10;;;;;;;28.70;22.27;;;;;;;8.70;100.00;95048.91;5092523;27;102386;-65
2022/04/23 02:20:38;;;;;;;30.13;22.17;;;;;;;8.63;100.00;95054.53;5072518;27;104429;-65
2022/04/23 02:23:05;;;;;;;28.50;21.67;;;;;;;8.62;100.00;95057.44;5073395;27;101984;-64
2022/04/23 02:25:34;;;;;;;29.27;22.27;;;;;;;8.71;100.00;95051.31;5073386;27;105322;-64
2022/04/23 02:28:01;;;;;;;28.03;21.00;;;;;;;8.63;100.00;95059.81;5073120;27;105703;-65
2022/04/23 02:30:31;;;;;;;27.47;21.07;;;;;;;8.66;100.00;95058.47;5073384;27;101883;-65
2022/04/23 02:32:57;;;;;;;29.17;21.67;;;;;;;8.69;100.00;95055.28;5090268;27;105662;-65
2022/04/23 02:35:25;;;;;;;30.67;22.40;;;;;;;8.64;100.00;95048.16;5076452;27;105756;-65
2022/04/23 02:37:55;;;;;;;28.77;21.50;;;;;;;8.50;100.00;95046.34;5073151;27;104068;-65
2022/04/23 02:40:21;;;;;;;29.97;22.07;;;;;;;8.47;100.00;95045.03;5072693;27;104880;-65
2022/04/23 02:42:50;;;;;;;28.07;20.67;;;;;;;8.42;100.00;95042.41;5073349;27;101862;-65
2022/04/23 02:45:20;;;;;;;30.77;21.37;;;;;;;8.52;100.00;95046.88;5072816;27;105704;-64
2022/04/23 02:47:51;;;;;;;29.47;21.90;;;;;;;8.50;100.00;95052.44;5091185;27;102523;-65
2022/04/23 02:50:26;;;;;;;29.30;21.03;;;;;;;8.50;100.00;95049.00;5073015;27;101755;-65
2022/04/23 02:52:53;;;;;;;29.67;21.73;;;;;;;8.51;100.00;95045.28;5073084;27;104824;-65
2022/04/23 02:55:21;;;;;;;29.37;21.83;;;;;;;8.56;100.00;95047.91;5090964;27;101807;-65
2022/04/23 02:57:48;;;;;;;31.13;21.67;;;;;;;8.45;100.00;95044.50;5076408;27;101919;-65
2022/04/23 03:00:16;;;;;;;33.37;23.13;;;;;;;8.55;100.00;95046.31;5072506;27;105465;-65
2022/04/23 03:02:44;;;;;;;31.37;22.97;;;;;;;8.51;100.00;95045.28;5073521;27;101808;-64
2022/04/23 03:05:14;;;;;;;29.00;21.80;;;;;;;8.45;100.00;95041.06;5072609;27;105456;-64
2022/04/23 03:07:42;;;;;;;31.43;22.90;;;;;;;8.48;100.00;95051.91;5072122;27;103806;-65
2022/04/23 03:10:11;;;;;;;30.10;22.50;;;;;;;8.41;100.00;95046.09;5072679;27;101962;-64
2022/04/23 03:12:38;;;;;;;30.00;23.00;;;;;;;8.42;100.00;95046.88;5091465;27;102407;-65
2022/04/23 03:15:07;;;;;;;31.03;22.83;;;;;;;8.43;100.00;95043.16;5072250;27;105211;-65
2022/04/23 03:17:34;;;;;;;31.27;22.57;;;;;;;8.41;100.00;95045.31;5075984;27;101965;-65
2022/04/23 03:20:01;;;;;;;31.70;22.77;;;;;;;8.48;100.00;95048.47;5056859;27;103830;-65
2022/04/23 03:22:29;;;;;;;32.93;23.70;;;;;;;8.48;100.00;95049.25;5048574;27;101778;-65
2022/04/23 03:24:57;;;;;;;31.73;22.87;;;;;;;8.51;100.00;95046.06;5048599;27;103655;-65
2022/04/23 03:27:24;;;;;;;30.70;23.47;;;;;;;8.43;100.00;95049.28;5049193;27;104250;-64
2022/04/23 03:29:51;;;;;;;33.90;24.43;;;;;;;8.48;100.00;95056.41;5050216;27;102396;-65
2022/04/23 03:32:18;;;;;;;34.33;24.10;;;;;;;8.48;100.00;95048.47;5049790;27;102323;-65
2022/04/23 03:34:45;;;;;;;34.73;25.23;;;;;;;8.44;100.00;95044.75;5049509;27;102583;-65
2022/04/23 03:37:12;;;;;;;30.20;22.90;;;;;;;8.47;100.00;95045.03;5048203;27;102008;-64
2022/04/23 03:39:41;;;;;;;33.97;23.77;;;;;;;8.47;100.00;95054.81;5052795;27;102254;-64
2022/04/23 03:42:08;;;;;;;30.80;22.17;;;;;;;8.51;100.00;95056.66;5049758;27;101855;-65
2022/04/23 03:44:35;;;;;;;31.53;22.37;;;;;;;8.59;100.00;95057.97;5048290;27;103661;-65
2022/04/23 03:47:02;;;;;;;29.87;23.40;;;;;;;8.53;100.00;95067.00;5049551;27;102657;-64
2022/04/23 03:49:30;;;;;;;30.10;22.47;;;;;;;8.56;100.00;95063.81;5048053;27;101856;-64
2022/04/23 03:51:57;;;;;;;30.10;23.27;;;;;;;8.54;100.00;95055.31;5049584;27;102380;-65
2022/04/23 03:54:25;;;;;;;31.47;22.43;;;;;;;8.46;100.00;95055.91;5049296;27;102649;-65
2022/04/23 03:56:54;;;;;;;30.60;22.07;;;;;;;8.54;100.00;95056.13;5048431;27;102422;-65
2022/04/23 03:59:23;;;;;;;33.03;23.17;;;;;;;8.44;100.00;95053.50;5048101;27;103695;-65
2022/04/23 04:01:53;;;;;;;33.90;23.97;;;;;;;8.37;100.00;95057.50;5051044;27;105411;-65
2022/04/23 04:04:20;;;;;;;32.93;22.93;;;;;;;8.38;100.00;95051.13;5049396;27;102342;-64
2022/04/23 04:06:47;;;;;;;31.40;22.80;;;;;;;8.43;100.00;95048.47;5048792;27;102679;-65
2022/04/23 04:09:14;;;;;;;35.40;24.70;;;;;;;8.38;100.00;95048.47;5049483;27;101832;-65
2022/04/23 04:14:27;;;;;;;31.00;22.27;;;;;;;8.44;100.00;95055.34;5048299;27;103127;-64
2022/04/23 04:16:55;;;;;;;30.60;22.23;;;;;;;8.43;100.00;95048.47;5049493;27;101787;-64
2022/04/23 04:19:22;;;;;;;30.40;22.67;;;;;;;8.37;100.00;95052.19;5060323;27;101864;-65
2022/04/23 04:21:49;;;;;;;32.67;21.17;;;;;;;8.33;100.00;95049.28;5089745;27;104196;-64
2022/04/23 04:24:16;;;;;;;33.67;21.63;;;;;;;8.40;100.00;95046.38;5093890;27;102297;-64
2022/04/23 04:26:46;;;;;;;29.20;21.93;;;;;;;8.37;100.00;95054.84;5070876;27;105421;-65
2022/04/23 04:29:14;;;;;;;29.33;20.87;;;;;;;8.37;100.00;95049.53;5071762;27;101829;-64
2022/04/23 04:31:49;;;;;;;30.80;21.30;;;;;;;8.42;100.00;95053.00;5087418;27;104148;-65
2022/04/23 04:34:17;;;;;;;32.17;21.80;;;;;;;8.38;100.00;95035.25;5089584;27;102660;-65
2022/04/23 04:36:44;;;;;;;30.43;22.23;;;;;;;8.39;100.00;95031.56;5071113;27;101934;-65
2022/04/23 04:39:12;;;;;;;34.07;22.83;;;;;;;8.39;100.00;95026.25;5089931;27;102667;-64
2022/04/23 04:41:38;;;;;;;28.13;20.77;;;;;;;8.39;100.00;95020.97;5070862;27;105489;-65
2022/04/23 04:44:06;;;;;;;31.93;23.20;;;;;;;8.38;100.00;95025.44;5090026;27;101754;-64
2022/04/23 04:46:33;;;;;;;31.47;22.50;;;;;;;8.38;100.00;95016.69;5074242;27;103545;-65
2022/04/23 04:49:03;;;;;;;30.13;21.90;;;;;;;8.32;100.00;95017.78;5071218;27;101981;-64
2022/04/23 04:51:30;;;;;;;32.57;22.70;;;;;;;8.35;100.00;95011.97;5089740;27;102960;-65
2022/04/23 04:53:57;;;;;;;31.90;22.97;;;;;;;8.38;100.00;95014.06;5070917;27;105072;-65
2022/04/23 04:56:24;;;;;;;30.60;22.10;;;;;;;8.36;100.00;95019.63;5071110;27;101934;-65
2022/04/23 04:58:51;;;;;;;30.50;22.00;;;;;;;8.48;100.00;95024.63;5089902;27;102640;-65
2022/04/23 05:01:18;;;;;;;33.27;22.80;;;;;;;8.49;100.00;95028.84;5089201;27;102751;-64
2022/04/23 05:03:45;;;;;;;30.70;21.67;;;;;;;8.58;100.00;95029.88;5074426;27;101818;-65
2022/04/23 05:06:14;;;;;;;31.00;21.93;;;;;;;8.55;100.00;95035.72;5093107;27;102317;-64
2022/04/23 05:08:42;;;;;;;31.03;22.47;;;;;;;8.58;100.00;95035.19;5077772;27;103137;-65
2022/04/23 05:11:09;;;;;;;30.87;22.30;;;;;;;8.55;100.00;95033.88;5074828;27;104866;-65
2022/04/23 05:13:37;;;;;;;29.80;20.93;;;;;;;8.59;100.00;95044.72;5074080;27;106279;-65
2022/04/23 05:16:06;;;;;;;30.50;21.50;;;;;;;8.60;100.00;95041.81;5092959;27;101779;-64
2022/04/23 05:18:33;;;;;;;31.87;21.70;;;;;;;8.67;100.00;95041.53;5091771;27;105562;-64
2022/04/23 05:21:01;;;;;;;28.10;20.03;;;;;;;8.72;100.00;95041.50;5073196;27;105497;-65
2022/04/23 05:23:30;;;;;;;29.73;21.57;;;;;;;8.74;100.00;95039.38;5074521;27;101923;-64
2022/04/23 05:25:57;;;;;;;29.70;21.97;;;;;;;8.80;100.00;95035.63;5074580;27;105366;-64
2022/04/23 05:28:24;;;;;;;28.00;21.17;;;;;;;8.91;100.00;95045.94;5076895;27;106166;-64
2022/04/23 05:30:51;;;;;;;27.77;20.33;;;;;;;8.99;100.00;95048.00;5074181;27;105362;-64
2022/04/23 05:33:18;;;;;;;26.57;19.97;;;;;;;9.01;100.00;95051.19;5073853;27;105128;-64
2022/04/23 05:35:45;;;;;;;23.83;18.40;;;;;;;9.14;100.00;95053.22;5074071;27;101939;-64
2022/04/23 05:38:12;;;;;;;24.03;18.77;;;;;;;9.18;100.00;95045.53;5074107;27;104838;-64
2022/04/23 05:40:41;;;;;;;28.23;20.47;;;;;;;9.15;100.00;95043.41;5073821;27;104753;-64
2022/04/23 05:43:08;;;;;;;26.10;19.23;;;;;;;9.22;100.00;95041.25;5073856;27;101979;-65
2022/04/23 05:45:36;;;;;;;26.00;19.73;;;;;;;9.16;100.00;95048.44;5073921;27;105141;-64
2022/04/23 05:48:03;;;;;;;24.77;19.33;;;;;;;9.16;100.00;95043.13;5073807;27;106164;-64
2022/04/23 05:50:31;;;;;;;25.33;18.87;;;;;;;9.20;100.00;95049.47;5077591;27;101989;-65
2022/04/23 05:52:58;;;;;;;25.00;18.67;;;;;;;9.31;100.00;95042.25;5092225;27;102590;-65
2022/04/23 05:55:25;;;;;;;25.40;18.80;;;;;;;9.24;100.00;95033.81;5073644;27;101915;-64
2022/04/23 05:57:53;;;;;;;24.50;18.77;;;;;;;9.29;100.00;95033.78;5092625;27;102513;-65
2022/04/23 06:00:21;;;;;;;26.23;19.27;;;;;;;9.29;100.00;95037.25;5091766;27;102714;-64
2022/04/23 06:02:48;;;;;;;25.50;18.63;;;;;;;9.15;100.00;95052.16;5092738;27;101833;-65
2022/04/23 06:05:15;;;;;;;23.37;17.97;;;;;;;9.18;100.00;95048.16;5092574;27;102566;-65
2022/04/23 06:07:42;;;;;;;24.70;19.03;;;;;;;9.26;100.00;95047.63;5072819;27;105354;-64
2022/04/23 06:10:10;;;;;;;24.20;18.73;;;;;;;9.24;100.00;95052.38;5092254;27;101827;-64
2022/04/23 06:12:38;;;;;;;22.67;17.77;;;;;;;9.22;100.00;95044.69;5076430;27;103680;-64
2022/04/23 06:15:08;;;;;;;23.50;19.10;;;;;;;9.22;100.00;95051.88;5073523;27;102024;-65
2022/04/23 06:17:35;;;;;;;24.23;18.50;;;;;;;9.30;100.00;95056.59;5091973;27;103020;-65
2022/04/23 06:20:05;;;;;;;21.83;16.93;;;;;;;9.23;100.00;95054.25;5091144;27;102608;-65
2022/04/23 06:22:32;;;;;;;22.93;17.07;;;;;;;9.21;100.00;95051.06;5092404;27;101761;-64
2022/04/23 06:24:59;;;;;;;23.23;17.63;;;;;;;9.30;100.00;95057.38;5092125;27;103077;-64
2022/04/23 06:27:26;;;;;;;21.67;17.27;;;;;;;9.37;100.00;95049.13;5091327;27;102730;-64
2022/04/23 06:29:53;;;;;;;23.00;18.07;;;;;;;9.32;100.00;95044.63;5073151;27;102110;-64
2022/04/23 06:32:22;;;;;;;20.33;16.27;;;;;;;9.46;100.00;95042.97;5073328;27;105462;-65
2022/04/23 06:34:49;;;;;;;21.70;16.70;;;;;;;9.48;100.00;95034.72;5076319;27;105206;-64
2022/04/23 06:37:18;;;;;;;21.63;17.07;;;;;;;9.48;100.00;95035.50;5090376;27;105058;-64
2022/04/23 06:39:45;;;;;;;23.83;18.40;;;;;;;9.50;100.00;95036.03;5072605;27;105392;-64
2022/04/23 06:42:12;;;;;;;20.67;16.70;;;;;;;9.54;100.00;95037.06;5072941;27;102054;-64
2022/04/23 06:44:40;;;;;;;20.37;16.73;;;;;;;9.60;100.00;95043.13;5090397;27;105536;-64
2022/04/23 06:47:07;;;;;;;20.57;16.80;;;;;;;9.72;100.00;95040.91;5072555;27;105680;-64
2022/04/23 06:49:36;;;;;;;23.17;16.83;;;;;;;9.72;100.00;95040.91;5072609;27;102561;-65
2022/04/23 06:52:03;;;;;;;19.70;16.50;;;;;;;9.69;100.00;95038.81;5091824;27;102930;-64
2022/04/23 06:54:30;;;;;;;20.37;16.23;;;;;;;9.67;100.00;95046.25;5072625;27;105263;-64
2022/04/23 06:56:57;;;;;;;23.10;18.10;;;;;;;9.72;100.00;95044.38;5076327;27;101951;-64
2022/04/23 06:59:24;;;;;;;24.73;18.73;;;;;;;9.69;100.00;95041.47;5091105;27;102667;-64
2022/04/23 07:01:50;;;;;;;20.73;16.20;;;;;;;9.67;100.00;95038.31;5072711;27;102267;-64
2022/04/23 07:04:17;;;;;;;21.10;17.00;;;;;;;9.67;100.00;95046.25;5072840;27;104777;-64
2022/04/23 07:06:46;;;;;;;19.53;15.63;;;;;;;9.71;100.00;95049.94;5090797;27;102722;-64
2022/04/23 07:09:13;;;;;;;19.83;16.07;;;;;;;9.69;100.00;95054.72;5072724;27;101910;-65
2022/04/23 07:11:39;;;;;;;18.63;15.50;;;;;;;9.72;100.00;95044.38;5072757;27;105132;-64
2022/04/23 07:14:08;;;;;;;17.23;14.17;;;;;;;9.95;100.00;95056.13;5072261;27;105034;-64
2022/04/23 07:16:35;;;;;;;19.07;15.73;;;;;;;10.08;100.00;95039.59;5072311;27;101837;-64
2022/04/23 07:19:04;;;;;;;20.00;15.40;;;;;;;10.09;100.00;95043.84;5075050;27;103928;-64
2022/04/23 07:21:33;;;;;;;20.10;15.70;;;;;;;10.18;100.00;95044.78;5072613;27;101820;-65
2022/04/23 07:24:05;;;;;;;18.40;14.73;;;;;;;10.14;100.00;95043.78;5072076;27;105021;-65
2022/04/23 07:26:35;;;;;;;17.83;15.27;;;;;;;10.23;100.00;95042.91;5071380;27;105339;-64
2022/04/23 07:29:05;;;;;;;17.27;14.20;;;;;;;10.31;100.00;95036.19;5089496;27;101797;-64
2022/04/23 07:31:32;;;;;;;18.53;15.63;;;;;;;10.37;100.00;95029.75;5089324;27;105220;-64
2022/04/23 07:39:29;;;;;;;19.00;15.17;;;;;;;10.55;100.00;95023.69;5093783;27;102427;-64
2022/04/23 07:41:56;;;;;;;17.20;14.53;;;;;;;10.47;100.00;95021.66;5090720;27;101865;-64
2022/04/23 07:44:23;;;;;;;17.63;14.33;;;;;;;10.42;100.00;95024.38;5072308;27;106201;-64
2022/04/23 07:46:51;;;;;;;16.17;13.87;;;;;;;10.45;100.00;95035.22;5071491;27;105752;-64
2022/04/23 07:49:18;;;;;;;17.33;14.07;;;;;;;10.47;100.00;95030.41;5089279;27;101882;-64
2022/04/23 07:51:47;;;;;;;16.63;13.97;;;;;;;10.52;100.00;95033.03;5072086;27;105302;-65
2022/04/23 07:54:15;;;;;;;16.80;14.40;;;;;;;10.60;100.00;95027.09;5071543;27;105216;-64
2022/04/23 07:56:44;;;;;;;18.10;14.93;;;;;;;10.61;100.00;95019.91;5071894;27;101919;-64
2022/04/23 07:59:11;;;;;;;18.13;14.43;;;;;;;10.52;100.00;95013.63;5072001;27;104151;-65
2022/04/23 08:01:38;;;;;;;14.57;13.00;;;;;;;10.55;100.00;95015.72;5093443;27;102898;-65
2022/04/23 08:04:06;;;;;;;18.10;14.37;;;;;;;10.64;100.00;95014.03;5072175;27;103636;-65
2022/04/23 08:06:34;;;;;;;15.83;13.60;;;;;;;10.72;100.00;95013.38;5071209;27;105554;-64
2022/04/23 08:09:01;;;;;;;17.87;15.20;;;;;;;10.75;100.00;95004.84;5090229;27;101860;-64
2022/04/23 08:11:28;;;;;;;18.83;14.67;;;;;;;10.61;100.00;95003.94;5071652;27;105067;-64
2022/04/23 08:13:57;;;;;;;17.07;14.30;;;;;;;10.68;100.00;95012.41;5089700;27;102927;-64
2022/04/23 08:16:27;;;;;;;17.60;15.50;;;;;;;10.77;100.00;95018.66;5071869;27;101962;-64
2022/04/23 08:18:55;;;;;;;17.70;14.77;;;;;;;10.79;100.00;95009.31;5070991;27;104052;-64
2022/04/23 08:21:23;;;;;;;16.77;14.83;;;;;;;10.98;100.00;95006.69;5089986;27;103130;-64
2022/04/23 08:23:50;;;;;;;18.03;13.87;;;;;;;11.12;100.00;95008.34;5075253;27;101795;-64
2022/04/23 08:26:17;;;;;;;13.80;12.10;;;;;;;11.26;100.00;95005.78;5071012;27;105063;-64
2022/04/23 08:31:30;;;;;;;14.03;12.50;;;;;;;11.49;100.00;95000.38;5090273;27;102334;-64
2022/04/23 08:34:00;;;;;;;15.70;13.53;;;;;;;11.54;100.00;95010.16;5071246;27;105816;-64
2022/04/23 08:36:29;;;;;;;17.00;13.80;;;;;;;11.53;100.00;95000.59;5091677;27;101746;-64
2022/04/23 08:38:57;;;;;;;25.73;22.33;;;;;;;11.59;100.00;94994.13;5074920;27;102372;-64
2022/04/23 08:41:28;;;;;;;15.43;12.70;;;;;;;11.75;100.00;94995.47;5074611;27;104095;-64
2022/04/23 08:43:57;;;;;;;13.57;12.17;;;;;;;11.77;100.00;94990.66;5075409;27;101767;-64
2022/04/23 08:46:26;;;;;;;14.37;11.37;;;;;;;11.87;100.00;94998.47;5077984;27;105180;-64
2022/04/23 08:49:07;;;;;;;13.60;12.10;;;;;;;11.81;100.00;94994.31;5091964;27;101740;-64
2022/04/23 08:51:35;;;;;;;15.67;14.07;;;;;;;11.93;100.00;94994.66;5093290;27;103982;-64
2022/04/23 08:54:07;;;;;;;14.60;11.90;;;;;;;11.86;100.00;94992.38;5074242;27;104020;-64
2022/04/23 08:56:36;;;;;;;13.93;12.27;;;;;;;12.07;100.00;94987.47;5074830;27;101788;-65
2022/04/23 08:59:04;;;;;;;13.83;11.80;;;;;;;12.31;100.00;94988.13;5075232;27;102421;-64
2022/04/23 09:01:35;;;;;;;13.57;11.57;;;;;;;12.17;100.00;94976.66;5093079;27;102493;-64
2022/04/23 09:04:04;;;;;;;14.30;12.23;;;;;;;12.10;100.00;94976.25;5093709;27;102309;-64
2022/04/23 09:06:39;;;;;;;14.80;13.10;;;;;;;12.13;100.00;94973.78;5093051;27;102537;-65
2022/04/23 09:09:07;;;;;;;14.07;11.70;;;;;;;12.33;100.00;94969.94;5096469;27;102604;-64
2022/04/23 09:11:36;;;;;;;13.13;11.30;;;;;;;12.45;100.00;94971.06;5074817;27;103767;-64
2022/04/23 09:14:04;;;;;;;14.27;11.87;;;;;;;12.68;100.00;94975.38;5074270;27;103975;-64
2022/04/23 09:24:47;;;;;;;12.33;11.03;;;;;;;13.06;100.00;94976.75;5091300;27;101972;-64
2022/04/23 09:27:15;;;;;;;12.47;11.10;;;;;;;13.22;100.00;94977.22;5092929;27;102333;-64
2022/04/23 09:29:42;;;;;;;13.23;11.57;;;;;;;13.28;100.00;94976.00;5073887;27;105536;-65
2022/04/23 09:32:10;;;;;;;13.23;11.83;;;;;;;13.20;100.00;94979.41;5077684;27;101814;-64
2022/04/23 09:34:39;;;;;;;12.67;11.33;;;;;;;13.48;100.00;94980.91;5073691;27;105208;-64
2022/04/23 09:37:08;;;;;;;13.60;11.47;;;;;;;13.63;100.00;94973.31;5074135;27;102037;-64
2022/04/23 09:39:38;;;;;;;13.03;11.10;;;;;;;13.60;100.00;94976.59;5074126;27;105231;-64
2022/04/23 09:42:13;;;;;;;12.20;10.90;;;;;;;13.66;100.00;94964.72;5092165;27;102612;-64
2022/04/23 09:44:40;;;;;;;11.80;10.60;;;;;;;13.98;100.00;94963.66;5092483;27;101801;-64
2022/04/23 09:47:07;;;;;;;12.30;11.00;;;;;;;13.99;100.00;94973.25;5073870;27;105741;-64
2022/04/23 09:49:34;;;;;;;12.33;11.03;;;;;;;14.51;100.00;94957.19;5072815;27;105552;-64
2022/04/23 09:52:05;;;;;;;11.70;10.10;;;;;;;15.00;100.00;94959.53;5095879;27;101924;-64
2022/04/23 09:54:32;;;;;;;10.13;9.13;;;;;;;15.25;100.00;94955.31;5073506;27;105347;-64
2022/04/23 09:57:00;;;;;;;11.20;9.90;;;;;;;15.30;100.00;94955.16;5093311;27;101869;-64
2022/04/23 09:59:27;;;;;;;9.80;8.87;;;;;;;15.19;100.00;94951.22;5091998;27;105219;-64
2022/04/23 10:01:55;;;;;;;10.07;9.07;;;;;;;15.33;100.00;94949.22;5091432;27;104143;-64
2022/04/23 10:04:24;;;;;;;10.53;9.50;;;;;;;15.06;100.00;94946.78;5074714;27;102938;-64
2022/04/23 10:06:52;;;;;;;9.07;8.17;;;;;;;15.40;100.00;94942.28;5091759;27;104775;-64
2022/04/23 10:09:22;;;;;;;8.93;8.07;;;;;;;15.43;100.00;94944.31;5091153;27;105332;-64
2022/04/23 10:11:51;;;;;;;9.27;8.37;;;;;;;15.07;100.00;94937.66;5093644;27;101719;-64
2022/04/23 10:14:22;;;;;;;9.37;8.47;;;;;;;14.99;100.00;94946.47;5077606;27;104122;-64
2022/04/23 10:16:50;;;;;;;8.60;7.80;;;;;;;15.56;100.00;94945.28;5092805;27;101785;-65
2022/04/23 10:19:19;;;;;;;9.10;8.17;;;;;;;15.80;100.00;94941.00;5092788;27;102934;-64
2022/04/23 10:21:53;;;;;;;9.00;8.20;;;;;;;15.88;100.00;94942.09;5073742;27;105792;-64
2022/04/23 10:24:27;;;;;;;8.90;8.10;;;;;;;16.02;100.00;94937.34;5092886;27;101810;-64
2022/04/23 10:26:59;;;;;;;8.30;7.50;;;;;;;16.20;100.00;94944.25;5093062;27;102768;-64
2022/04/23 10:29:31;;;;;;;8.77;7.73;;;;;;;16.07;100.00;94937.97;5092541;27;103166;-64
2022/04/23 10:32:20;;;;;;;8.17;7.40;;;;;;;16.06;100.00;94938.28;5074129;27;102025;-64
2022/04/23 10:34:47;;;;;;;8.47;7.67;;;;;;;16.43;100.00;94942.94;5071350;27;105148;-64
2022/04/23 10:37:20;;;;;;;8.67;7.87;;;;;;;16.45;100.00;94935.38;5076735;27;106660;-64
2022/04/23 10:40:17;;;;;;;9.53;8.60;;;;;;;16.59;100.00;94943.97;5091446;27;105265;-64
2022/04/23 10:43:12;;;;;;;9.00;8.10;;;;;;;16.91;100.00;94943.34;5073372;27;105435;-64
2022/04/23 10:45:41;;;;;;;8.93;8.13;;;;;;;17.31;100.00;94942.63;5073727;27;101908;-64
2022/04/23 10:48:24;;;;;;;8.77;7.97;;;;;;;17.16;100.00;94947.78;5073976;27;104144;-64
2022/04/23 10:51:03;;;;;;;9.07;8.27;;;;;;;16.88;100.00;94954.72;5090505;27;105389;-64
2022/04/23 10:53:30;;;;;;;8.90;8.10;;;;;;;16.46;100.00;94951.13;5092813;27;101738;-64
2022/04/23 10:56:09;;;;;;;8.57;7.77;;;;;;;16.35;100.00;94949.88;5074161;27;104963;-64
2022/04/23 10:58:37;;;;;;;9.37;8.47;;;;;;;16.46;100.00;94937.72;5073313;27;105363;-64
2022/04/23 11:01:30;;;;;;;8.43;7.63;;;;;;;16.22;100.00;94936.66;5093005;27;101948;-64
2022/04/23 11:04:14;;;;;;;8.80;8.00;;;;;;;16.36;100.00;94938.03;5081552;27;102152;-64
2022/04/23 11:12:32;;;;;;;9.33;8.43;;;;;;;15.95;100.00;94934.34;5049636;27;105005;-64
2022/04/23 11:15:00;;;;;;;12.33;11.10;;;;;;;15.97;100.00;94934.84;5092421;27;101746;-64
2022/04/23 11:17:50;;;;;;;20.30;16.83;;;;;;;15.79;100.00;94930.59;5072349;27;105569;-64
2022/04/23 11:20:33;;;;;;;9.67;8.67;;;;;;;15.61;100.00;94943.25;5088645;27;104461;-64
2022/04/23 11:23:02;;;;;;;9.27;8.37;;;;;;;16.05;100.00;94937.50;5090717;27;101910;-64
2022/04/23 11:25:30;;;;;;;9.90;9.00;;;;;;;15.75;100.00;94933.13;5094618;27;102588;-64
2022/04/23 11:28:13;;;;;;;9.67;8.77;;;;;;;15.92;100.00;94925.06;5073423;27;102494;-64
2022/04/23 11:30:40;;;;;;;9.47;8.60;;;;;;;16.03;100.00;94928.97;5073692;27;103574;-64
2022/04/23 11:33:12;;;;;;;10.03;9.03;;;;;;;16.16;100.00;94932.56;5091464;27;102505;-64
2022/04/23 11:35:39;;;;;;;9.47;8.57;;;;;;;16.01;100.00;94925.03;5090071;27;101961;-64
2022/04/23 11:38:07;;;;;;;9.50;8.60;;;;;;;16.22;100.00;94932.09;5073178;27;104804;-65
2022/04/23 11:40:37;;;;;;;9.47;8.57;;;;;;;16.67;100.00;94927.06;5072398;27;105399;-65